Time;durP1;ratioP1;P1;durP2;ratioP2;P2;SDS_P1;SDS_P2;PMS_P1;PMS_P2;Temp;Humidity;BMP_temperature;BMP_pressure;BME280_temperature;BME280_humidity;BME280_pressure;Samples;Min_cycle;Max_cycle;Signal;HPM_P1;HPM_P2
2023/01/27 00:00:20;;;;;;;9.65;7.05;;;;;;;-3.99;100.00;92896.09;2558082;23;20001;-82
2023/01/27 00:01:21;;;;;;;12.57;6.95;;;;;;;-3.95;100.00;92902.16;2582117;23;20371;-82
2023/01/27 00:02:22;;;;;;;9.95;7.18;;;;;;;-3.94;100.00;92899.22;2570515;23;20012;-84
2023/01/27 00:03:23;;;;;;;11.10;7.20;;;;;;;-3.94;100.00;92899.22;2557222;23;20005;-85
2023/01/27 00:04:24;;;;;;;9.98;6.53;;;;;;;-3.74;100.00;92888.94;2545361;23;20005;-83
2023/01/27 00:05:25;;;;;;;10.18;6.93;;;;;;;-3.74;100.00;92888.94;2545443;23;20013;-83
2023/01/27 00:06:26;;;;;;;7.95;6.13;;;;;;;-3.72;100.00;92884.91;2545548;23;20036;-85
2023/01/27 00:07:27;;;;;;;9.93;6.63;;;;;;;-3.70;100.00;92895.03;2545548;23;20001;-83
2023/01/27 00:08:28;;;;;;;7.40;6.45;;;;;;;-3.76;100.00;92893.75;2557557;23;20000;-84
2023/01/27 00:09:29;;;;;;;8.68;6.15;;;;;;;-3.84;100.00;92890.94;2557288;23;20004;-85
2023/01/27 00:10:30;;;;;;;9.45;6.30;;;;;;;-3.80;100.00;92891.03;2557235;23;20011;-84
2023/01/27 00:14:10;;;;;;;11.02;6.43;;;;;;;-3.82;100.00;92890.59;2573144;23;20471;-84
2023/01/27 00:15:13;;;;;;;9.45;5.57;;;;;;;-3.85;100.00;92893.88;2556855;23;20004;-84
2023/01/27 00:16:13;;;;;;;12.25;6.72;;;;;;;-3.86;100.00;92887.16;2558123;23;20420;-84
2023/01/27 00:17:14;;;;;;;9.45;5.97;;;;;;;-3.88;100.00;92887.47;2556952;23;20012;-83
2023/01/27 00:18:15;;;;;;;8.00;5.80;;;;;;;-3.92;100.00;92884.00;2569277;23;20008;-83
2023/01/27 00:19:18;;;;;;;10.60;5.65;;;;;;;-3.96;100.00;92890.19;2569078;23;20079;-84
2023/01/27 00:24:36;;;;;;;8.43;5.47;;;;;;;-3.96;100.00;92895.41;2575000;23;20498;-86
2023/01/27 00:25:37;;;;;;;8.27;5.20;;;;;;;-3.89;100.00;92906.84;2556819;23;20061;-85
2023/01/27 00:26:39;;;;;;;8.50;5.78;;;;;;;-3.69;100.00;92905.13;2545166;23;20028;-83
2023/01/27 00:27:39;;;;;;;10.80;6.05;;;;;;;-3.78;100.00;92899.28;2544424;23;20072;-83
2023/01/27 00:28:42;;;;;;;8.73;5.88;;;;;;;-3.69;100.00;92894.69;2557098;23;20416;-86
2023/01/27 00:29:43;;;;;;;9.45;5.90;;;;;;;-3.73;100.00;92900.91;2557650;23;20490;-84
2023/01/27 00:30:44;;;;;;;9.57;6.10;;;;;;;-3.87;100.00;92893.44;2556115;23;20020;-84
2023/01/27 00:34:25;;;;;;;7.53;5.45;;;;;;;-3.96;100.00;92895.41;2573202;23;20007;-86
2023/01/27 00:35:26;;;;;;;9.20;5.90;;;;;;;-3.90;100.00;92892.25;2556690;23;20336;-82
2023/01/27 00:36:28;;;;;;;8.43;5.65;;;;;;;-3.89;100.00;92895.63;2557034;23;20005;-83
2023/01/27 00:37:29;;;;;;;9.15;6.45;;;;;;;-3.87;100.00;92896.03;2569568;23;20004;-82
2023/01/27 00:38:39;;;;;;;9.70;5.88;;;;;;;-3.97;100.00;92902.50;2556728;23;20288;-83
2023/01/27 00:39:41;;;;;;;9.15;6.22;;;;;;;-3.94;100.00;92904.44;2571367;23;20039;-86
2023/01/27 00:41:14;;;;;;;7.78;5.63;;;;;;;-3.92;100.00;92898.88;2569042;23;20005;-86
2023/01/27 00:42:02;;;;;;;8.35;5.70;;;;;;;-3.87;100.00;92896.03;2564889;23;20086;-82
2023/01/27 00:43:03;;;;;;;8.27;6.03;;;;;;;-3.70;100.00;92898.41;2556913;23;20466;-84
2023/01/27 00:44:05;;;;;;;8.35;5.65;;;;;;;-3.81;100.00;92892.88;2557110;23;20051;-83
2023/01/27 00:46:26;;;;;;;10.57;6.10;;;;;;;-3.63;100.00;92895.22;2565212;23;20440;-84
2023/01/27 00:47:27;;;;;;;8.25;5.63;;;;;;;-3.64;100.00;92891.09;2557010;23;20005;-86
2023/01/27 00:48:28;;;;;;;7.40;5.43;;;;;;;-3.67;100.00;92895.13;2544520;23;20523;-84
2023/01/27 00:49:29;;;;;;;6.53;5.25;;;;;;;-3.78;100.00;92899.28;2556440;23;20118;-82
2023/01/27 00:50:30;;;;;;;8.27;5.95;;;;;;;-3.86;100.00;92897.59;2557084;23;20324;-84
2023/01/27 00:51:32;;;;;;;9.70;6.40;;;;;;;-3.92;100.00;92896.28;2557096;23;20080;-83
2023/01/27 00:52:33;;;;;;;8.57;6.20;;;;;;;-3.96;100.00;92890.19;2569130;23;20000;-83
2023/01/27 00:53:34;;;;;;;8.38;6.10;;;;;;;-3.95;100.00;92895.09;2544618;23;20033;-84
2023/01/27 00:54:35;;;;;;;9.88;6.63;;;;;;;-3.97;100.00;92899.13;2544288;23;20012;-82
2023/01/27 00:55:36;;;;;;;7.95;5.90;;;;;;;-3.88;100.00;92889.31;2556564;23;20004;-83
2023/01/27 00:56:37;;;;;;;8.55;6.50;;;;;;;-3.82;100.00;92888.75;2556973;23;20001;-85
2023/01/27 00:57:39;;;;;;;9.50;6.70;;;;;;;-3.96;100.00;92895.41;2545139;23;20139;-85
2023/01/27 00:58:40;;;;;;;10.32;7.20;;;;;;;-3.94;100.00;92901.09;2544704;23;20009;-83
2023/01/27 00:59:41;;;;;;;8.13;5.25;;;;;;;-3.80;100.00;92897.00;2544564;23;20017;-83
2023/01/27 01:00:42;;;;;;;7.57;5.50;;;;;;;-3.85;100.00;92892.03;2544311;23;20021;-85
2023/01/27 01:01:43;;;;;;;7.57;5.10;;;;;;;-3.99;100.00;92885.66;2556461;23;20001;-84
2023/01/27 01:02:44;;;;;;;7.35;5.10;;;;;;;-3.94;100.00;92888.03;2557100;23;20005;-84
2023/01/27 01:03:45;;;;;;;6.55;5.20;;;;;;;-3.89;100.00;92887.81;2556647;23;20518;-84
2023/01/27 01:04:46;;;;;;;6.30;4.93;;;;;;;-3.83;100.00;92889.06;2568823;23;20106;-83
2023/01/27 01:05:48;;;;;;;8.00;5.45;;;;;;;-4.00;100.00;92895.31;2556702;23;20076;-84
2023/01/27 01:06:49;;;;;;;7.55;5.40;;;;;;;-4.01;100.00;92882.59;2556800;23;20352;-83
2023/01/27 01:07:50;;;;;;;7.65;4.82;;;;;;;-3.96;100.00;92892.81;2556949;23;20021;-86
2023/01/27 01:08:51;;;;;;;6.50;4.88;;;;;;;-3.95;100.00;92889.09;2568600;23;20099;-84
2023/01/27 01:09:52;;;;;;;8.82;4.93;;;;;;;-3.99;100.00;92888.28;2556474;23;20012;-83
2023/01/27 01:10:53;;;;;;;8.13;5.30;;;;;;;-3.99;100.00;92896.84;2556299;23;20043;-84
2023/01/27 01:11:54;;;;;;;7.53;5.10;;;;;;;-4.01;100.00;92888.56;2544134;23;20473;-86
2023/01/27 01:12:55;;;;;;;7.00;5.15;;;;;;;-4.01;100.00;92888.56;2556509;23;20059;-83
2023/01/27 01:13:56;;;;;;;7.13;5.40;;;;;;;-4.10;100.00;92896.53;2556563;23;20008;-85
2023/01/27 01:14:57;;;;;;;6.43;4.88;;;;;;;-4.15;100.00;92894.16;2544385;23;20003;-82
2023/01/27 01:16:07;;;;;;;7.80;5.28;;;;;;;-3.99;100.00;92889.03;2556915;23;20016;-83
2023/01/27 01:17:08;;;;;;;6.80;4.90;;;;;;;-3.90;100.00;92888.91;2558385;23;20001;-85
2023/01/27 01:18:10;;;;;;;7.72;4.90;;;;;;;-3.94;100.00;92894.00;2544611;23;20106;-84
2023/01/27 01:19:13;;;;;;;9.63;5.82;;;;;;;-3.96;100.00;92892.81;2556827;23;20185;-84
2023/01/27 01:20:14;;;;;;;7.35;5.85;;;;;;;-3.96;100.00;92896.19;2557099;23;20015;-83
2023/01/27 01:21:15;;;;;;;6.20;4.70;;;;;;;-3.91;100.00;92892.56;2555849;23;20005;-84
2023/01/27 01:22:16;;;;;;;8.25;5.28;;;;;;;-3.95;100.00;92892.50;2544542;23;20117;-84
2023/01/27 01:23:17;;;;;;;7.13;5.57;;;;;;;-4.02;100.00;92894.13;2556833;23;20005;-84
2023/01/27 01:24:18;;;;;;;10.07;6.13;;;;;;;-3.99;100.00;92896.84;2568516;23;20032;-83
2023/01/27 01:25:19;;;;;;;8.18;5.93;;;;;;;-4.00;100.00;92892.69;2556432;23;20001;-85
2023/01/27 01:26:20;;;;;;;9.40;6.47;;;;;;;-4.09;100.00;92894.69;2569181;23;20008;-82
2023/01/27 01:27:21;;;;;;;10.27;6.35;;;;;;;-4.03;100.00;92888.16;2568560;23;20111;-85
2023/01/27 01:28:23;;;;;;;8.80;5.68;;;;;;;-4.05;100.00;92890.31;2555707;23;20005;-84
2023/01/27 01:29:23;;;;;;;7.97;6.00;;;;;;;-3.89;100.00;92885.19;2556699;23;20451;-81
2023/01/27 01:30:25;;;;;;;8.70;5.47;;;;;;;-3.97;100.00;92896.50;2544202;23;20033;-83
2023/01/27 01:31:26;;;;;;;8.00;5.70;;;;;;;-4.02;100.00;92889.69;2544197;23;20005;-85
2023/01/27 01:32:27;;;;;;;8.15;5.55;;;;;;;-4.02;100.00;92889.69;2550132;23;20002;-83
2023/01/27 01:33:28;;;;;;;8.65;6.18;;;;;;;-3.98;100.00;92887.16;2550100;23;20025;-82
2023/01/27 01:34:29;;;;;;;8.63;5.88;;;;;;;-3.98;100.00;92889.78;2561734;23;20001;-85
2023/01/27 01:35:30;;;;;;;8.35;6.72;;;;;;;-4.14;100.00;92894.91;2568953;23;20367;-84
2023/01/27 01:36:31;;;;;;;8.57;6.45;;;;;;;-4.07;100.00;92885.44;2556267;23;20032;-84
2023/01/27 01:37:32;;;;;;;8.25;6.63;;;;;;;-4.11;100.00;92891.66;2544233;23;20498;-82
2023/01/27 01:38:33;;;;;;;13.98;7.07;;;;;;;-4.09;100.00;92881.63;2560316;23;20012;-83
2023/01/27 01:39:34;;;;;;;11.27;6.82;;;;;;;-4.09;100.00;92892.81;2559672;23;20004;-83
2023/01/27 01:40:40;;;;;;;8.60;6.00;;;;;;;-4.03;100.00;92887.41;2544189;23;20009;-85
2023/01/27 01:41:41;;;;;;;10.55;6.95;;;;;;;-3.91;100.00;92882.13;2557272;23;20005;-85
2023/01/27 01:43:02;;;;;;;11.13;6.68;;;;;;;-3.79;100.00;92874.28;2543940;23;20002;-82
2023/01/27 01:44:25;;;;;;;8.55;6.45;;;;;;;-3.92;100.00;92881.38;2564793;23;20423;-83
2023/01/27 01:45:32;;;;;;;8.73;6.18;;;;;;;-4.04;100.00;92886.63;2560346;23;20361;-83
2023/01/27 01:46:33;;;;;;;11.57;6.47;;;;;;;-4.15;100.00;92882.97;2546473;23;20009;-85
2023/01/27 01:47:34;;;;;;;10.32;6.75;;;;;;;-4.09;100.00;92882.38;2543941;23;20471;-86
2023/01/27 01:48:57;;;;;;;11.80;7.60;;;;;;;-3.97;100.00;92876.38;2543988;23;20421;-85
2023/01/27 01:49:57;;;;;;;12.77;6.68;;;;;;;-3.99;100.00;92875.97;2552189;23;20479;-84
2023/01/27 01:51:31;;;;;;;11.35;7.55;;;;;;;-3.92;100.00;92878.75;2543697;23;20085;-85
2023/01/27 01:52:32;;;;;;;10.55;6.40;;;;;;;-3.88;100.00;92873.66;2556640;23;20178;-83
2023/01/27 01:53:40;;;;;;;8.20;6.18;;;;;;;-3.71;100.00;92875.22;2556322;23;20009;-82
2023/01/27 01:54:52;;;;;;;11.05;7.30;;;;;;;-3.72;100.00;92877.09;2557848;23;20383;-81
2023/01/27 01:55:57;;;;;;;11.73;7.07;;;;;;;-3.85;100.00;92880.81;2548330;23;20119;-83
2023/01/27 01:57:07;;;;;;;13.48;6.78;;;;;;;-3.87;100.00;92878.53;2545802;23;20405;-85
2023/01/27 01:58:10;;;;;;;11.55;6.75;;;;;;;-3.86;100.00;92884.53;2547895;23;20010;-85
2023/01/27 01:59:21;;;;;;;9.15;6.25;;;;;;;-3.88;100.00;92877.00;2544941;23;20009;-85
2023/01/27 02:00:23;;;;;;;11.18;7.63;;;;;;;-4.03;100.00;92882.19;2548069;23;20009;-82
2023/01/27 02:01:24;;;;;;;11.60;6.93;;;;;;;-4.07;100.00;92876.84;2556660;23;20009;-85
2023/01/27 02:02:25;;;;;;;10.32;6.97;;;;;;;-3.91;100.00;92874.31;2569208;23;20008;-83
2023/01/27 02:03:28;;;;;;;11.02;7.30;;;;;;;-4.08;100.00;92868.28;2556026;23;20008;-83
2023/01/27 02:04:39;;;;;;;10.20;6.88;;;;;;;-4.10;100.00;92860.00;2556876;23;20023;-85
2023/01/27 02:05:43;;;;;;;10.32;6.80;;;;;;;-4.04;100.00;92860.53;2558855;23;20059;-83
2023/01/27 02:06:53;;;;;;;11.35;7.20;;;;;;;-4.07;100.00;92859.34;2545379;23;20029;-84
2023/01/27 02:08:01;;;;;;;10.95;6.95;;;;;;;-4.11;100.00;92863.69;2548201;23;20044;-84
2023/01/27 02:09:02;;;;;;;10.75;7.15;;;;;;;-4.11;100.00;92860.34;2559488;23;20000;-83
2023/01/27 02:10:04;;;;;;;10.98;7.70;;;;;;;-4.01;100.00;92861.72;2556324;23;20088;-83
2023/01/27 02:11:07;;;;;;;11.65;7.40;;;;;;;-4.03;100.00;92856.84;2556368;23;20005;-83
2023/01/27 02:12:08;;;;;;;12.98;7.80;;;;;;;-4.00;100.00;92864.00;2544947;23;20024;-82
2023/01/27 02:13:09;;;;;;;13.02;8.07;;;;;;;-3.89;100.00;92854.63;2543872;23;20036;-84
2023/01/27 02:14:13;;;;;;;10.55;7.78;;;;;;;-3.50;100.00;92856.78;2568787;23;20001;-84
2023/01/27 02:15:14;;;;;;;12.02;7.40;;;;;;;-3.55;100.00;92852.53;2568883;23;20012;-84
2023/01/27 02:16:15;;;;;;;10.07;6.40;;;;;;;-3.79;100.00;92861.22;2544448;23;20010;-82
2023/01/27 02:18:29;;;;;;;9.48;6.13;;;;;;;-3.96;100.00;92848.44;2120726;27;20189;-80
2023/01/27 02:19:54;;;;;;;10.27;6.82;;;;;;;-4.14;100.00;92851.31;2095235;28;20024;-80
2023/01/27 02:20:56;;;;;;;9.48;6.53;;;;;;;-4.18;100.00;92855.66;2092703;28;20350;-82
2023/01/27 02:22:00;;;;;;;9.10;6.38;;;;;;;-4.06;100.00;92860.84;2087062;28;20079;-81
2023/01/27 02:23:32;;;;;;;9.48;6.70;;;;;;;-3.83;100.00;92850.66;2091851;28;20771;-81
2023/01/27 02:24:39;;;;;;;10.10;6.70;;;;;;;-3.91;100.00;92853.41;2095494;28;20494;-82
2023/01/27 02:26:04;;;;;;;8.35;6.18;;;;;;;-3.96;100.00;92856.25;2096088;28;20028;-79
2023/01/27 02:27:05;;;;;;;9.00;6.20;;;;;;;-3.90;100.00;92855.72;2098373;28;20134;-81
2023/01/27 02:28:07;;;;;;;7.63;5.57;;;;;;;-3.92;100.00;92857.88;2093251;28;20021;-80
2023/01/27 02:29:11;;;;;;;6.65;5.35;;;;;;;-3.86;100.00;92861.78;2095020;28;20021;-80
2023/01/27 02:30:12;;;;;;;9.65;6.10;;;;;;;-3.95;100.00;92860.38;2095422;28;20017;-82
2023/01/27 02:31:13;;;;;;;8.30;6.07;;;;;;;-4.02;100.00;92860.97;2095072;28;20507;-82
2023/01/27 02:32:43;;;;;;;8.93;6.20;;;;;;;-4.11;100.00;92858.47;2086963;28;20040;-82
2023/01/27 02:33:44;;;;;;;8.65;6.07;;;;;;;-4.06;100.00;92857.50;2087775;28;20076;-80
2023/01/27 02:34:45;;;;;;;8.48;5.80;;;;;;;-4.07;100.00;92863.81;2086908;28;20040;-80
2023/01/27 02:36:04;;;;;;;8.05;6.10;;;;;;;-3.93;100.00;92856.38;2103611;28;20028;-82
2023/01/27 02:37:07;;;;;;;8.07;5.90;;;;;;;-3.98;100.00;92858.47;2095300;28;20040;-80
2023/01/27 02:38:12;;;;;;;9.52;6.30;;;;;;;-4.00;100.00;92853.56;2086791;28;20051;-81
2023/01/27 02:39:15;;;;;;;7.95;6.05;;;;;;;-4.03;100.00;92858.69;2099007;28;20429;-80
2023/01/27 02:40:17;;;;;;;8.40;5.88;;;;;;;-4.01;100.00;92862.47;2092243;28;20094;-81
2023/01/27 02:41:32;;;;;;;7.97;5.93;;;;;;;-3.86;100.00;92855.81;2099201;28;21483;-80
2023/01/27 02:42:33;;;;;;;8.90;6.25;;;;;;;-4.01;100.00;92857.25;2093431;28;20071;-81
2023/01/27 02:43:34;;;;;;;7.95;5.78;;;;;;;-3.90;100.00;92857.56;2086424;28;20029;-81
2023/01/27 02:44:35;;;;;;;9.80;6.50;;;;;;;-3.94;100.00;92851.50;2077732;28;20490;-81
2023/01/27 02:45:36;;;;;;;10.90;6.70;;;;;;;-3.81;100.00;92850.34;2077239;28;20613;-81
2023/01/27 02:46:37;;;;;;;9.93;7.25;;;;;;;-3.88;100.00;92856.13;2087038;28;20131;-79
2023/01/27 02:47:38;;;;;;;9.75;6.63;;;;;;;-4.01;100.00;92856.50;2085667;28;20017;-80
2023/01/27 02:48:39;;;;;;;10.32;6.57;;;;;;;-3.72;100.00;92855.44;2085390;28;20025;-80
2023/01/27 02:49:40;;;;;;;7.85;6.65;;;;;;;-3.87;100.00;92860.25;2085406;28;20025;-80
2023/01/27 02:50:41;;;;;;;8.35;5.90;;;;;;;-3.84;100.00;92857.00;2085357;28;20021;-81
2023/01/27 02:51:42;;;;;;;7.20;5.43;;;;;;;-3.99;100.00;92855.09;2086965;28;20021;-81
2023/01/27 02:52:43;;;;;;;8.45;5.93;;;;;;;-3.94;100.00;92861.94;2086901;28;20084;-81
2023/01/27 02:53:44;;;;;;;8.60;5.72;;;;;;;-3.96;100.00;92856.25;2084591;28;20135;-80
2023/01/27 02:54:45;;;;;;;7.70;5.75;;;;;;;-4.03;100.00;92861.31;2086711;28;20029;-80
2023/01/27 02:55:46;;;;;;;8.77;5.50;;;;;;;-4.02;100.00;92860.22;2074300;28;20049;-79
2023/01/27 02:56:47;;;;;;;8.73;6.25;;;;;;;-4.06;100.00;92858.25;2091042;28;20068;-81
2023/01/27 02:57:48;;;;;;;7.63;5.93;;;;;;;-3.99;100.00;92854.34;2101058;28;20036;-80
2023/01/27 02:58:49;;;;;;;7.70;5.47;;;;;;;-3.80;100.00;92855.25;2086617;28;20029;-81
2023/01/27 02:59:50;;;;;;;8.23;5.78;;;;;;;-3.83;100.00;92850.66;2084984;28;20077;-81
2023/01/27 03:00:51;;;;;;;6.70;5.43;;;;;;;-3.85;100.00;92859.94;2092172;28;20028;-81
2023/01/27 03:01:52;;;;;;;6.68;5.70;;;;;;;-3.88;100.00;92847.53;2086774;28;20021;-80
2023/01/27 03:02:53;;;;;;;8.05;6.05;;;;;;;-3.78;100.00;92848.91;2086743;28;20868;-80
2023/01/27 03:03:54;;;;;;;7.32;5.80;;;;;;;-3.84;100.00;92854.38;2078033;28;20021;-80
2023/01/27 03:04:56;;;;;;;7.18;5.45;;;;;;;-3.91;100.00;92846.34;2085884;28;20100;-81
2023/01/27 03:05:57;;;;;;;8.27;5.75;;;;;;;-3.95;100.00;92850.72;2086598;28;20544;-81
2023/01/27 03:06:57;;;;;;;7.70;5.82;;;;;;;-3.82;100.00;92848.81;2094351;28;20082;-82
2023/01/27 03:07:59;;;;;;;7.75;5.93;;;;;;;-3.87;100.00;92849.06;2094633;28;20024;-80
2023/01/27 03:09:00;;;;;;;8.77;6.30;;;;;;;-3.83;100.00;92855.91;2086426;28;20095;-79
2023/01/27 03:10:00;;;;;;;8.68;5.95;;;;;;;-3.84;100.00;92856.22;2073818;28;20029;-80
2023/01/27 03:11:01;;;;;;;8.38;6.30;;;;;;;-3.94;100.00;92851.50;2091030;28;20016;-80
2023/01/27 03:12:21;;;;;;;7.70;5.72;;;;;;;-3.99;100.00;92849.13;2100930;28;20020;-79
2023/01/27 03:13:25;;;;;;;7.93;5.55;;;;;;;-4.03;100.00;92846.41;2097175;28;20017;-80
2023/01/27 03:18:23;;;;;;;8.80;5.47;;;;;;;-4.32;100.00;92857.88;2093047;28;20035;-82
2023/01/27 03:19:25;;;;;;;7.80;5.97;;;;;;;-4.27;100.00;92846.44;2094988;28;20441;-81
2023/01/27 03:20:26;;;;;;;8.98;6.70;;;;;;;-4.23;100.00;92847.31;2094794;28;20119;-81
2023/01/27 03:21:27;;;;;;;9.57;6.80;;;;;;;-4.23;100.00;92855.88;2086236;28;20150;-81
2023/01/27 03:22:28;;;;;;;8.30;6.55;;;;;;;-4.23;100.00;92857.75;2096488;28;20031;-80
2023/01/27 03:23:33;;;;;;;8.52;6.57;;;;;;;-4.18;100.00;92853.06;2095820;28;20025;-80
2023/01/27 03:24:34;;;;;;;7.20;5.60;;;;;;;-4.08;100.00;92855.22;2087645;28;20048;-81
2023/01/27 03:25:35;;;;;;;9.23;6.38;;;;;;;-4.09;100.00;92858.16;2086267;28;20021;-81
2023/01/27 03:26:37;;;;;;;8.90;6.13;;;;;;;-3.97;100.00;92852.13;2090547;28;20121;-82
2023/01/27 03:27:38;;;;;;;9.00;6.38;;;;;;;-4.02;100.00;92860.22;2089483;28;20021;-81
2023/01/27 03:28:39;;;;;;;9.07;6.78;;;;;;;-4.13;100.00;92858.03;2094377;28;20489;-81
2023/01/27 03:29:55;;;;;;;9.88;6.57;;;;;;;-3.86;100.00;92853.97;2089880;28;20017;-82
2023/01/27 03:31:07;;;;;;;10.05;7.05;;;;;;;-4.05;100.00;92857.16;2088522;28;20472;-81
2023/01/27 03:32:08;;;;;;;11.38;7.25;;;;;;;-4.01;100.00;92864.31;2096444;28;20127;-81
2023/01/27 03:33:09;;;;;;;8.95;6.78;;;;;;;-4.09;100.00;92865.97;2089172;28;20377;-80
2023/01/27 03:34:10;;;;;;;9.60;6.68;;;;;;;-3.95;100.00;92869.00;2082261;28;20053;-82
2023/01/27 03:35:15;;;;;;;10.25;6.43;;;;;;;-4.00;100.00;92865.84;2074780;28;20017;-81
2023/01/27 03:46:54;;;;;;;8.13;6.07;;;;;;;-3.92;100.00;92862.34;2090349;28;20036;-81
2023/01/27 03:47:55;;;;;;;8.70;6.47;;;;;;;-4.01;100.00;92866.94;2079855;28;20029;-80
2023/01/27 03:48:56;;;;;;;11.52;6.50;;;;;;;-3.88;100.00;92869.19;2072165;28;20471;-82
2023/01/27 03:49:57;;;;;;;10.23;7.20;;;;;;;-4.01;100.00;92866.94;2069828;28;20041;-81
2023/01/27 03:50:59;;;;;;;9.57;6.80;;;;;;;-3.91;100.00;92862.00;2071580;28;20474;-81
2023/01/27 03:52:00;;;;;;;9.25;6.47;;;;;;;-4.01;100.00;92859.88;2071663;28;20068;-80
2023/01/27 03:53:03;;;;;;;10.65;7.10;;;;;;;-4.08;100.00;92868.28;2069976;28;20514;-81
2023/01/27 03:54:05;;;;;;;10.18;7.30;;;;;;;-3.87;100.00;92870.69;2080101;28;20100;-80
2023/01/27 03:55:08;;;;;;;8.43;6.15;;;;;;;-4.01;100.00;92864.31;2077244;28;20498;-80
2023/01/27 03:56:09;;;;;;;8.70;6.18;;;;;;;-4.15;100.00;92870.66;2081344;28;20140;-81
2023/01/27 03:57:10;;;;;;;8.63;6.22;;;;;;;-4.13;100.00;92865.88;2079751;28;20039;-80
2023/01/27 03:58:21;;;;;;;8.63;6.07;;;;;;;-4.14;100.00;92874.78;2078761;28;20013;-80
2023/01/27 03:59:22;;;;;;;9.20;6.05;;;;;;;-4.24;100.00;92875.25;2082119;28;20026;-80
2023/01/27 04:00:23;;;;;;;8.60;6.03;;;;;;;-4.07;100.00;92869.03;2072534;28;20098;-80
2023/01/27 04:01:24;;;;;;;9.75;6.32;;;;;;;-4.12;100.00;92877.09;2071973;28;20056;-80
2023/01/27 04:07:47;;;;;;;6.50;4.82;;;;;;;-3.84;100.00;92875.25;2093478;28;20047;-81
2023/01/27 04:08:48;;;;;;;8.35;5.68;;;;;;;-3.88;100.00;92879.63;2080082;28;20099;-81
2023/01/27 04:09:50;;;;;;;6.93;5.20;;;;;;;-4.15;100.00;92875.88;2078153;28;20024;-81
2023/01/27 04:12:24;;;;;;;8.48;5.65;;;;;;;-4.17;100.00;92874.69;2093945;28;20028;-81
2023/01/27 04:13:25;;;;;;;10.60;5.07;;;;;;;-4.03;100.00;92869.88;2090891;28;20170;-80
2023/01/27 04:14:34;;;;;;;7.00;5.25;;;;;;;-4.14;100.00;92869.56;2077815;28;20053;-80
2023/01/27 04:15:37;;;;;;;8.13;5.68;;;;;;;-4.23;100.00;92865.56;2089756;28;20112;-81
2023/01/27 04:16:38;;;;;;;9.65;5.50;;;;;;;-4.21;100.00;92858.19;2086554;28;20033;-81
2023/01/27 04:17:39;;;;;;;8.40;5.45;;;;;;;-4.27;100.00;92857.63;2079955;28;20575;-80
2023/01/27 04:18:40;;;;;;;9.10;6.30;;;;;;;-4.18;100.00;92857.50;2080835;28;20772;-79
2023/01/27 04:19:41;;;;;;;10.60;6.18;;;;;;;-4.20;100.00;92859.69;2089229;28;20017;-82
2023/01/27 04:20:42;;;;;;;11.20;6.90;;;;;;;-4.17;100.00;92861.63;2088766;28;20104;-81
2023/01/27 04:21:44;;;;;;;10.98;7.40;;;;;;;-3.88;100.00;92857.97;2080788;28;20406;-81
2023/01/27 04:22:44;;;;;;;9.32;6.70;;;;;;;-4.01;100.00;92849.44;2085007;28;20506;-80
2023/01/27 04:23:45;;;;;;;9.98;6.95;;;;;;;-4.03;100.00;92853.47;2088874;28;20029;-81
2023/01/27 04:24:46;;;;;;;11.85;7.10;;;;;;;-4.08;100.00;92847.38;2092002;28;20115;-80
2023/01/27 04:25:49;;;;;;;10.10;6.60;;;;;;;-4.09;100.00;92852.91;2086643;28;20056;-81
2023/01/27 04:27:11;;;;;;;10.80;6.65;;;;;;;-3.99;100.00;92856.94;2071007;28;20041;-80
2023/01/27 04:28:12;;;;;;;10.23;6.43;;;;;;;-4.18;100.00;92858.28;2081260;28;20032;-80
2023/01/27 04:29:13;;;;;;;9.40;6.18;;;;;;;-4.05;100.00;92862.38;2076629;28;20018;-81
2023/01/27 04:30:14;;;;;;;9.60;6.13;;;;;;;-3.99;100.00;92857.69;2080316;28;20490;-81
2023/01/27 04:31:16;;;;;;;9.18;6.07;;;;;;;-4.05;100.00;92851.94;2078437;28;20024;-82
2023/01/27 04:32:17;;;;;;;9.88;6.80;;;;;;;-4.05;100.00;92856.41;2082873;28;20025;-80
2023/01/27 04:33:18;;;;;;;9.73;6.18;;;;;;;-4.14;100.00;92850.53;2070578;28;21109;-80
2023/01/27 04:34:19;;;;;;;7.75;6.00;;;;;;;-4.16;100.00;92850.13;2077454;28;20458;-81
2023/01/27 04:35:20;;;;;;;8.32;5.70;;;;;;;-4.23;100.00;92852.53;2072413;28;20022;-83
2023/01/27 04:36:21;;;;;;;9.65;5.80;;;;;;;-4.18;100.00;92857.50;2087500;28;20033;-81
2023/01/27 04:37:22;;;;;;;10.63;5.80;;;;;;;-4.17;100.00;92859.81;2072379;28;20022;-80
2023/01/27 04:38:23;;;;;;;9.05;6.57;;;;;;;-4.11;100.00;92850.66;2072219;28;20018;-80
2023/01/27 04:39:25;;;;;;;9.85;6.28;;;;;;;-4.07;100.00;92856.72;2080576;28;20025;-80
2023/01/27 04:40:25;;;;;;;11.48;7.03;;;;;;;-3.98;100.00;92853.25;2080579;28;20029;-81
2023/01/27 04:41:27;;;;;;;8.65;6.32;;;;;;;-4.20;100.00;92847.41;2078061;28;20025;-81
2023/01/27 04:42:27;;;;;;;10.48;7.13;;;;;;;-4.26;100.00;92846.09;2073277;28;20477;-81
2023/01/27 04:43:29;;;;;;;10.15;6.28;;;;;;;-4.26;100.00;92845.34;2087230;28;20028;-80
2023/01/27 04:44:30;;;;;;;7.57;5.68;;;;;;;-4.23;100.00;92855.88;2081445;28;20025;-81
2023/01/27 04:45:31;;;;;;;8.95;6.13;;;;;;;-4.15;100.00;92855.00;2072768;28;20033;-81
2023/01/27 04:46:33;;;;;;;6.25;5.00;;;;;;;-4.18;100.00;92853.06;2081544;28;20494;-79
2023/01/27 04:47:34;;;;;;;10.20;6.55;;;;;;;-4.13;100.00;92854.66;2084546;28;20036;-81
2023/01/27 04:48:35;;;;;;;7.28;5.82;;;;;;;-4.11;100.00;92857.72;2078260;28;20462;-80
2023/01/27 04:49:36;;;;;;;7.50;6.10;;;;;;;-4.16;100.00;92865.78;2078936;28;20039;-81
2023/01/27 04:50:36;;;;;;;10.48;7.05;;;;;;;-4.28;100.00;92879.59;2080214;28;20081;-80
2023/01/27 04:51:37;;;;;;;10.95;6.50;;;;;;;-4.13;100.00;92867.72;2088333;28;20047;-81
2023/01/27 04:52:39;;;;;;;11.05;7.20;;;;;;;-4.12;100.00;92875.22;2076938;28;20096;-81
2023/01/27 04:53:47;;;;;;;9.23;6.88;;;;;;;-4.03;100.00;92879.56;2070230;28;20030;-81
2023/01/27 04:54:54;;;;;;;9.93;6.70;;;;;;;-4.08;100.00;92889.16;2081060;28;20509;-83
2023/01/27 04:56:04;;;;;;;10.00;6.78;;;;;;;-4.17;100.00;92888.50;2089565;28;20048;-82
2023/01/27 04:57:05;;;;;;;10.60;6.80;;;;;;;-4.20;100.00;92880.56;2084950;28;20028;-81
2023/01/27 04:58:06;;;;;;;10.80;6.93;;;;;;;-4.06;100.00;92876.50;2088629;28;20033;-82
2023/01/27 04:59:11;;;;;;;8.18;6.28;;;;;;;-4.11;100.00;92876.00;2092724;28;20029;-81
2023/01/27 05:00:12;;;;;;;9.90;6.70;;;;;;;-4.13;100.00;92881.53;2080986;28;20023;-81
2023/01/27 05:01:13;;;;;;;10.50;6.78;;;;;;;-4.08;100.00;92893.59;2078414;28;20018;-80
2023/01/27 05:02:14;;;;;;;10.45;7.15;;;;;;;-4.08;100.00;92881.31;2079923;28;20052;-81
2023/01/27 05:03:15;;;;;;;11.43;7.28;;;;;;;-4.05;100.00;92890.31;2082254;28;20414;-81
2023/01/27 05:04:16;;;;;;;11.55;7.07;;;;;;;-4.09;100.00;92887.59;2096558;28;20202;-81
2023/01/27 05:05:17;;;;;;;9.68;7.15;;;;;;;-4.07;100.00;92892.50;2089727;28;20071;-80
2023/01/27 05:06:18;;;;;;;15.65;10.02;;;;;;;-4.13;100.00;92891.19;2080062;28;20083;-80
2023/01/27 05:07:19;;;;;;;17.13;9.13;;;;;;;-4.08;100.00;92894.38;2084478;28;20048;-80
2023/01/27 05:08:20;;;;;;;49.08;27.33;;;;;;;-4.13;100.00;92902.41;2084056;28;20017;-80
2023/01/27 05:09:20;;;;;;;17.80;10.95;;;;;;;-3.91;100.00;92889.97;2065838;28;20023;-80
2023/01/27 05:10:21;;;;;;;18.92;12.43;;;;;;;-4.08;100.00;92893.59;2070445;28;20049;-81
2023/01/27 05:11:22;;;;;;;13.23;9.68;;;;;;;-4.14;100.00;92893.06;2086138;28;20025;-80
2023/01/27 05:12:24;;;;;;;13.23;11.00;;;;;;;-4.01;100.00;92890.44;2088428;28;20374;-81
2023/01/27 05:13:25;;;;;;;14.05;10.90;;;;;;;-4.13;100.00;92899.03;2079687;28;20561;-82
2023/01/27 05:14:26;;;;;;;24.63;16.85;;;;;;;-4.10;100.00;92901.00;2080146;28;20024;-82
2023/01/27 05:15:28;;;;;;;62.35;37.40;;;;;;;-4.11;100.00;92902.09;2079745;28;20029;-83
2023/01/27 05:16:29;;;;;;;24.85;17.88;;;;;;;-4.05;100.00;92891.06;2085410;28;20029;-83
2023/01/27 05:17:32;;;;;;;17.88;13.25;;;;;;;-3.95;100.00;92887.28;2078323;28;20029;-80
2023/01/27 05:18:33;;;;;;;13.73;9.93;;;;;;;-3.97;100.00;92893.91;2080267;28;20498;-80
2023/01/27 05:19:33;;;;;;;10.27;7.72;;;;;;;-4.08;100.00;92888.41;2080019;28;20017;-81
2023/01/27 05:20:34;;;;;;;10.60;6.65;;;;;;;-3.99;100.00;92885.66;2079202;28;20466;-81
2023/01/27 05:21:36;;;;;;;10.48;7.53;;;;;;;-3.87;100.00;92878.53;2069604;28;20051;-80
2023/01/27 05:22:37;;;;;;;10.07;7.13;;;;;;;-3.95;100.00;92884.66;2072107;28;20025;-80
2023/01/27 05:23:38;;;;;;;10.55;7.32;;;;;;;-4.13;100.00;92886.75;2075332;28;20512;-81
2023/01/27 05:24:39;;;;;;;9.48;6.82;;;;;;;-4.24;100.00;92882.31;2093727;28;20473;-81